sensor_id;sensor_type;location;lat;lon;timestamp;P1;durP1;ratioP1;P2;durP2;ratioP2
16352;SDS011;8286;51.274;9.542;2023-02-15T00:02:26;18.50;;;8.40;;
16352;SDS011;8286;51.274;9.542;2023-02-15T00:04:54;17.80;;;8.97;;
16352;SDS011;8286;51.274;9.542;2023-02-15T00:07:21;15.30;;;8.50;;
16352;SDS011;8286;51.274;9.542;2023-02-15T00:09:47;17.67;;;8.90;;
16352;SDS011;8286;51.274;9.542;2023-02-15T00:12:15;21.63;;;8.90;;
16352;SDS011;8286;51.274;9.542;2023-02-15T00:14:42;20.87;;;9.87;;
16352;SDS011;8286;51.274;9.542;2023-02-15T00:17:08;17.60;;;8.40;;
16352;SDS011;8286;51.274;9.542;2023-02-15T00:19:35;18.70;;;8.30;;
16352;SDS011;8286;51.274;9.542;2023-02-15T00:22:02;21.10;;;10.07;;
16352;SDS011;8286;51.274;9.542;2023-02-15T00:24:29;18.17;;;8.93;;
16352;SDS011;8286;51.274;9.542;2023-02-15T00:26:55;19.80;;;9.13;;
16352;SDS011;8286;51.274;9.542;2023-02-15T00:29:22;23.50;;;10.50;;
16352;SDS011;8286;51.274;9.542;2023-02-15T00:31:48;22.00;;;10.43;;
16352;SDS011;8286;51.274;9.542;2023-02-15T00:34:16;19.30;;;9.60;;
16352;SDS011;8286;51.274;9.542;2023-02-15T00:36:44;20.73;;;9.47;;
16352;SDS011;8286;51.274;9.542;2023-02-15T00:39:12;23.57;;;10.57;;
16352;SDS011;8286;51.274;9.542;2023-02-15T00:41:39;19.13;;;9.33;;
16352;SDS011;8286;51.274;9.542;2023-02-15T00:44:05;22.20;;;10.60;;
16352;SDS011;8286;51.274;9.542;2023-02-15T00:46:32;21.60;;;10.17;;
16352;SDS011;8286;51.274;9.542;2023-02-15T00:48:59;19.07;;;10.13;;
16352;SDS011;8286;51.274;9.542;2023-02-15T00:51:26;19.60;;;9.60;;
16352;SDS011;8286;51.274;9.542;2023-02-15T00:53:53;17.87;;;9.07;;
16352;SDS011;8286;51.274;9.542;2023-02-15T00:56:21;19.80;;;10.53;;
16352;SDS011;8286;51.274;9.542;2023-02-15T00:58:47;16.57;;;7.97;;
16352;SDS011;8286;51.274;9.542;2023-02-15T01:01:15;15.83;;;7.83;;
16352;SDS011;8286;51.274;9.542;2023-02-15T01:03:42;15.30;;;8.57;;
16352;SDS011;8286;51.274;9.542;2023-02-15T01:06:10;13.63;;;7.60;;
16352;SDS011;8286;51.274;9.542;2023-02-15T01:08:37;14.77;;;7.93;;
16352;SDS011;8286;51.274;9.542;2023-02-15T01:11:04;13.87;;;7.63;;
16352;SDS011;8286;51.274;9.542;2023-02-15T01:13:32;11.77;;;6.83;;
16352;SDS011;8286;51.274;9.542;2023-02-15T01:15:59;16.23;;;7.53;;
16352;SDS011;8286;51.274;9.542;2023-02-15T01:18:26;11.80;;;6.50;;
16352;SDS011;8286;51.274;9.542;2023-02-15T01:20:52;14.90;;;7.70;;
16352;SDS011;8286;51.274;9.542;2023-02-15T01:23:19;15.23;;;7.93;;
16352;SDS011;8286;51.274;9.542;2023-02-15T01:25:45;15.27;;;7.80;;
16352;SDS011;8286;51.274;9.542;2023-02-15T01:28:12;15.00;;;7.53;;
16352;SDS011;8286;51.274;9.542;2023-02-15T01:30:40;13.57;;;7.37;;
16352;SDS011;8286;51.274;9.542;2023-02-15T01:33:07;15.13;;;7.73;;
16352;SDS011;8286;51.274;9.542;2023-02-15T01:35:42;15.77;;;8.10;;
16352;SDS011;8286;51.274;9.542;2023-02-15T01:38:09;17.80;;;8.03;;
16352;SDS011;8286;51.274;9.542;2023-02-15T01:40:35;16.13;;;9.00;;
16352;SDS011;8286;51.274;9.542;2023-02-15T01:43:08;18.33;;;8.83;;
16352;SDS011;8286;51.274;9.542;2023-02-15T01:45:36;17.33;;;8.73;;
16352;SDS011;8286;51.274;9.542;2023-02-15T01:48:05;21.57;;;9.13;;
16352;SDS011;8286;51.274;9.542;2023-02-15T01:50:45;14.20;;;7.40;;
16352;SDS011;8286;51.274;9.542;2023-02-15T01:53:15;14.83;;;7.43;;
16352;SDS011;8286;51.274;9.542;2023-02-15T01:55:44;15.93;;;7.67;;
16352;SDS011;8286;51.274;9.542;2023-02-15T01:58:13;19.27;;;8.50;;
16352;SDS011;8286;51.274;9.542;2023-02-15T02:00:40;16.43;;;8.03;;
16352;SDS011;8286;51.274;9.542;2023-02-15T02:03:08;16.30;;;8.40;;
16352;SDS011;8286;51.274;9.542;2023-02-15T02:05:35;15.23;;;7.70;;
16352;SDS011;8286;51.274;9.542;2023-02-15T02:08:02;12.27;;;7.53;;
16352;SDS011;8286;51.274;9.542;2023-02-15T02:10:28;16.33;;;8.23;;
16352;SDS011;8286;51.274;9.542;2023-02-15T02:12:56;18.43;;;8.80;;
16352;SDS011;8286;51.274;9.542;2023-02-15T02:15:26;14.70;;;7.77;;
16352;SDS011;8286;51.274;9.542;2023-02-15T02:17:59;13.13;;;7.77;;
16352;SDS011;8286;51.274;9.542;2023-02-15T02:20:41;16.43;;;7.77;;
16352;SDS011;8286;51.274;9.542;2023-02-15T02:23:27;19.23;;;8.67;;
16352;SDS011;8286;51.274;9.542;2023-02-15T02:35:19;18.30;;;8.77;;
16352;SDS011;8286;51.274;9.542;2023-02-15T02:37:51;15.43;;;7.83;;
16352;SDS011;8286;51.274;9.542;2023-02-15T02:40:28;17.17;;;7.73;;
16352;SDS011;8286;51.274;9.542;2023-02-15T02:43:04;13.13;;;8.00;;
16352;SDS011;8286;51.274;9.542;2023-02-15T02:45:35;13.67;;;7.83;;
16352;SDS011;8286;51.274;9.542;2023-02-15T02:48:06;14.30;;;7.67;;
16352;SDS011;8286;51.274;9.542;2023-02-15T02:50:38;15.27;;;7.80;;
16352;SDS011;8286;51.274;9.542;2023-02-15T02:53:05;13.70;;;7.57;;
16352;SDS011;8286;51.274;9.542;2023-02-15T02:55:33;17.10;;;8.30;;
16352;SDS011;8286;51.274;9.542;2023-02-15T02:58:03;16.03;;;7.70;;
16352;SDS011;8286;51.274;9.542;2023-02-15T03:00:32;15.40;;;8.23;;
16352;SDS011;8286;51.274;9.542;2023-02-15T03:03:02;10.67;;;6.77;;
16352;SDS011;8286;51.274;9.542;2023-02-15T03:05:32;16.33;;;7.03;;
16352;SDS011;8286;51.274;9.542;2023-02-15T03:08:01;13.03;;;6.33;;
16352;SDS011;8286;51.274;9.542;2023-02-15T03:10:31;13.20;;;7.47;;
16352;SDS011;8286;51.274;9.542;2023-02-15T03:12:58;13.93;;;7.70;;
16352;SDS011;8286;51.274;9.542;2023-02-15T03:15:26;15.40;;;7.53;;
16352;SDS011;8286;51.274;9.542;2023-02-15T03:18:17;13.80;;;8.10;;
16352;SDS011;8286;51.274;9.542;2023-02-15T03:20:44;15.97;;;7.33;;
16352;SDS011;8286;51.274;9.542;2023-02-15T03:23:12;15.57;;;7.87;;
16352;SDS011;8286;51.274;9.542;2023-02-15T03:25:40;16.93;;;7.67;;
16352;SDS011;8286;51.274;9.542;2023-02-15T03:28:08;13.47;;;7.37;;
16352;SDS011;8286;51.274;9.542;2023-02-15T03:30:36;14.53;;;7.37;;
16352;SDS011;8286;51.274;9.542;2023-02-15T03:33:04;14.33;;;7.20;;
16352;SDS011;8286;51.274;9.542;2023-02-15T03:35:33;13.23;;;6.80;;
16352;SDS011;8286;51.274;9.542;2023-02-15T03:38:03;13.03;;;6.97;;
16352;SDS011;8286;51.274;9.542;2023-02-15T03:40:34;13.23;;;6.73;;
16352;SDS011;8286;51.274;9.542;2023-02-15T03:43:21;12.03;;;6.97;;
16352;SDS011;8286;51.274;9.542;2023-02-15T03:45:51;11.23;;;6.47;;
16352;SDS011;8286;51.274;9.542;2023-02-15T03:48:23;12.80;;;6.80;;
16352;SDS011;8286;51.274;9.542;2023-02-15T03:50:51;12.60;;;7.03;;
16352;SDS011;8286;51.274;9.542;2023-02-15T03:53:36;11.93;;;7.17;;
16352;SDS011;8286;51.274;9.542;2023-02-15T03:56:05;14.50;;;6.97;;
16352;SDS011;8286;51.274;9.542;2023-02-15T03:58:31;10.80;;;6.90;;
16352;SDS011;8286;51.274;9.542;2023-02-15T04:01:18;13.77;;;6.73;;
16352;SDS011;8286;51.274;9.542;2023-02-15T04:04:07;11.53;;;6.30;;
16352;SDS011;8286;51.274;9.542;2023-02-15T04:06:36;13.93;;;7.57;;
16352;SDS011;8286;51.274;9.542;2023-02-15T04:09:02;16.47;;;7.97;;
16352;SDS011;8286;51.274;9.542;2023-02-15T04:11:48;12.87;;;7.90;;
16352;SDS011;8286;51.274;9.542;2023-02-15T04:14:14;14.30;;;8.30;;
16352;SDS011;8286;51.274;9.542;2023-02-15T04:16:59;16.80;;;8.77;;
16352;SDS011;8286;51.274;9.542;2023-02-15T04:19:25;14.83;;;8.00;;
16352;SDS011;8286;51.274;9.542;2023-02-15T04:22:09;15.43;;;8.03;;
16352;SDS011;8286;51.274;9.542;2023-02-15T04:24:53;15.37;;;8.10;;
16352;SDS011;8286;51.274;9.542;2023-02-15T04:27:41;17.07;;;7.90;;
16352;SDS011;8286;51.274;9.542;2023-02-15T04:30:09;17.67;;;8.10;;
16352;SDS011;8286;51.274;9.542;2023-02-15T04:32:37;18.10;;;8.87;;
16352;SDS011;8286;51.274;9.542;2023-02-15T04:35:04;18.23;;;8.80;;
16352;SDS011;8286;51.274;9.542;2023-02-15T04:37:32;17.47;;;8.40;;
16352;SDS011;8286;51.274;9.542;2023-02-15T04:39:58;20.43;;;9.37;;
16352;SDS011;8286;51.274;9.542;2023-02-15T04:42:25;18.50;;;9.07;;
16352;SDS011;8286;51.274;9.542;2023-02-15T04:44:53;20.90;;;9.53;;
16352;SDS011;8286;51.274;9.542;2023-02-15T04:47:19;17.70;;;9.60;;
16352;SDS011;8286;51.274;9.542;2023-02-15T04:49:46;21.57;;;9.50;;
16352;SDS011;8286;51.274;9.542;2023-02-15T04:52:12;20.23;;;9.13;;
16352;SDS011;8286;51.274;9.542;2023-02-15T04:54:39;22.87;;;10.00;;
16352;SDS011;8286;51.274;9.542;2023-02-15T04:57:05;19.53;;;9.20;;
16352;SDS011;8286;51.274;9.542;2023-02-15T04:59:32;20.03;;;9.00;;
16352;SDS011;8286;51.274;9.542;2023-02-15T05:02:00;16.77;;;8.43;;
16352;SDS011;8286;51.274;9.542;2023-02-15T05:04:26;18.07;;;8.23;;
16352;SDS011;8286;51.274;9.542;2023-02-15T05:06:53;19.97;;;9.17;;
16352;SDS011;8286;51.274;9.542;2023-02-15T05:09:19;19.33;;;9.07;;
16352;SDS011;8286;51.274;9.542;2023-02-15T05:11:46;21.83;;;8.83;;
16352;SDS011;8286;51.274;9.542;2023-02-15T05:14:12;19.40;;;9.17;;
16352;SDS011;8286;51.274;9.542;2023-02-15T05:16:39;21.40;;;8.70;;
16352;SDS011;8286;51.274;9.542;2023-02-15T05:19:07;18.90;;;9.30;;
16352;SDS011;8286;51.274;9.542;2023-02-15T05:21:33;17.77;;;8.67;;
16352;SDS011;8286;51.274;9.542;2023-02-15T05:24:00;14.30;;;8.27;;
16352;SDS011;8286;51.274;9.542;2023-02-15T05:26:46;19.67;;;8.93;;
16352;SDS011;8286;51.274;9.542;2023-02-15T05:29:30;17.00;;;7.67;;
16352;SDS011;8286;51.274;9.542;2023-02-15T05:31:56;18.83;;;8.63;;
16352;SDS011;8286;51.274;9.542;2023-02-15T05:34:24;17.93;;;8.20;;
16352;SDS011;8286;51.274;9.542;2023-02-15T05:36:51;18.13;;;8.47;;
16352;SDS011;8286;51.274;9.542;2023-02-15T05:39:17;18.50;;;8.77;;
16352;SDS011;8286;51.274;9.542;2023-02-15T05:41:43;20.97;;;8.90;;
16352;SDS011;8286;51.274;9.542;2023-02-15T05:44:10;19.40;;;8.37;;
16352;SDS011;8286;51.274;9.542;2023-02-15T05:46:36;16.47;;;8.17;;
16352;SDS011;8286;51.274;9.542;2023-02-15T05:49:03;17.50;;;8.53;;
16352;SDS011;8286;51.274;9.542;2023-02-15T05:51:31;15.73;;;8.43;;
16352;SDS011;8286;51.274;9.542;2023-02-15T05:53:57;19.43;;;9.07;;
16352;SDS011;8286;51.274;9.542;2023-02-15T05:56:23;22.07;;;10.17;;
16352;SDS011;8286;51.274;9.542;2023-02-15T05:58:52;16.83;;;8.97;;
16352;SDS011;8286;51.274;9.542;2023-02-15T06:01:19;16.97;;;9.07;;
16352;SDS011;8286;51.274;9.542;2023-02-15T06:03:47;20.33;;;9.53;;
16352;SDS011;8286;51.274;9.542;2023-02-15T06:06:14;21.80;;;9.80;;
16352;SDS011;8286;51.274;9.542;2023-02-15T06:08:42;18.87;;;8.93;;
16352;SDS011;8286;51.274;9.542;2023-02-15T06:11:08;21.17;;;9.13;;
16352;SDS011;8286;51.274;9.542;2023-02-15T06:13:35;19.40;;;9.47;;
16352;SDS011;8286;51.274;9.542;2023-02-15T06:16:02;22.30;;;9.37;;
16352;SDS011;8286;51.274;9.542;2023-02-15T06:18:29;21.83;;;9.33;;
16352;SDS011;8286;51.274;9.542;2023-02-15T06:20:55;18.33;;;9.20;;
16352;SDS011;8286;51.274;9.542;2023-02-15T06:23:22;22.10;;;9.73;;
16352;SDS011;8286;51.274;9.542;2023-02-15T06:25:49;27.40;;;10.13;;
16352;SDS011;8286;51.274;9.542;2023-02-15T06:28:16;19.17;;;8.47;;
16352;SDS011;8286;51.274;9.542;2023-02-15T06:30:42;23.30;;;9.23;;
16352;SDS011;8286;51.274;9.542;2023-02-15T06:33:09;19.60;;;9.60;;
16352;SDS011;8286;51.274;9.542;2023-02-15T06:35:35;20.97;;;9.17;;
16352;SDS011;8286;51.274;9.542;2023-02-15T06:38:02;19.07;;;9.13;;
16352;SDS011;8286;51.274;9.542;2023-02-15T06:40:28;17.87;;;8.70;;
16352;SDS011;8286;51.274;9.542;2023-02-15T06:42:56;18.37;;;8.83;;
16352;SDS011;8286;51.274;9.542;2023-02-15T06:45:22;17.63;;;8.57;;
16352;SDS011;8286;51.274;9.542;2023-02-15T06:47:49;14.37;;;7.47;;
16352;SDS011;8286;51.274;9.542;2023-02-15T06:50:15;16.43;;;8.20;;
16352;SDS011;8286;51.274;9.542;2023-02-15T06:52:42;13.80;;;7.27;;
16352;SDS011;8286;51.274;9.542;2023-02-15T06:55:08;17.47;;;8.33;;
16352;SDS011;8286;51.274;9.542;2023-02-15T06:57:35;16.90;;;7.67;;
16352;SDS011;8286;51.274;9.542;2023-02-15T07:00:03;17.07;;;8.13;;
16352;SDS011;8286;51.274;9.542;2023-02-15T07:02:31;14.77;;;7.80;;
16352;SDS011;8286;51.274;9.542;2023-02-15T07:04:58;12.77;;;6.63;;
16352;SDS011;8286;51.274;9.542;2023-02-15T07:07:25;14.43;;;7.83;;
16352;SDS011;8286;51.274;9.542;2023-02-15T07:09:51;15.90;;;7.00;;
16352;SDS011;8286;51.274;9.542;2023-02-15T07:12:18;13.70;;;7.60;;
16352;SDS011;8286;51.274;9.542;2023-02-15T07:15:03;14.83;;;7.20;;
16352;SDS011;8286;51.274;9.542;2023-02-15T07:17:31;11.43;;;6.67;;
16352;SDS011;8286;51.274;9.542;2023-02-15T07:19:58;13.27;;;6.17;;
16352;SDS011;8286;51.274;9.542;2023-02-15T07:22:24;10.47;;;5.73;;
16352;SDS011;8286;51.274;9.542;2023-02-15T07:24:51;11.77;;;6.50;;
16352;SDS011;8286;51.274;9.542;2023-02-15T07:27:19;12.67;;;6.50;;
16352;SDS011;8286;51.274;9.542;2023-02-15T07:29:46;14.27;;;6.63;;
16352;SDS011;8286;51.274;9.542;2023-02-15T07:32:13;15.13;;;6.50;;
16352;SDS011;8286;51.274;9.542;2023-02-15T07:34:40;12.23;;;6.83;;
16352;SDS011;8286;51.274;9.542;2023-02-15T07:37:06;13.30;;;6.60;;
16352;SDS011;8286;51.274;9.542;2023-02-15T07:39:33;12.47;;;6.57;;
16352;SDS011;8286;51.274;9.542;2023-02-15T07:41:59;11.90;;;6.03;;
16352;SDS011;8286;51.274;9.542;2023-02-15T07:44:26;14.60;;;6.90;;
16352;SDS011;8286;51.274;9.542;2023-02-15T07:46:52;12.83;;;6.80;;
16352;SDS011;8286;51.274;9.542;2023-02-15T07:49:20;13.63;;;7.00;;
16352;SDS011;8286;51.274;9.542;2023-02-15T07:51:47;11.73;;;6.43;;
16352;SDS011;8286;51.274;9.542;2023-02-15T07:54:13;14.37;;;7.43;;
16352;SDS011;8286;51.274;9.542;2023-02-15T07:56:40;11.70;;;7.63;;
16352;SDS011;8286;51.274;9.542;2023-02-15T07:59:06;13.50;;;7.13;;
16352;SDS011;8286;51.274;9.542;2023-02-15T08:01:33;17.77;;;7.87;;
16352;SDS011;8286;51.274;9.542;2023-02-15T08:04:01;16.23;;;6.60;;
16352;SDS011;8286;51.274;9.542;2023-02-15T08:06:34;15.40;;;7.53;;
16352;SDS011;8286;51.274;9.542;2023-02-15T08:09:02;14.83;;;6.93;;
16352;SDS011;8286;51.274;9.542;2023-02-15T08:11:30;14.93;;;7.27;;
16352;SDS011;8286;51.274;9.542;2023-02-15T08:14:05;14.37;;;7.07;;
16352;SDS011;8286;51.274;9.542;2023-02-15T08:16:33;13.30;;;6.83;;
16352;SDS011;8286;51.274;9.542;2023-02-15T08:19:02;16.53;;;7.20;;
16352;SDS011;8286;51.274;9.542;2023-02-15T08:21:31;14.53;;;8.03;;
16352;SDS011;8286;51.274;9.542;2023-02-15T08:23:58;17.03;;;7.90;;
16352;SDS011;8286;51.274;9.542;2023-02-15T08:26:25;16.67;;;6.10;;
16352;SDS011;8286;51.274;9.542;2023-02-15T08:28:53;13.80;;;6.90;;
16352;SDS011;8286;51.274;9.542;2023-02-15T08:31:20;15.10;;;7.23;;
16352;SDS011;8286;51.274;9.542;2023-02-15T08:33:47;14.73;;;6.93;;
16352;SDS011;8286;51.274;9.542;2023-02-15T08:36:15;14.33;;;6.77;;
16352;SDS011;8286;51.274;9.542;2023-02-15T08:38:44;16.17;;;7.70;;
16352;SDS011;8286;51.274;9.542;2023-02-15T08:41:12;14.33;;;6.87;;
16352;SDS011;8286;51.274;9.542;2023-02-15T08:43:40;14.33;;;7.03;;
16352;SDS011;8286;51.274;9.542;2023-02-15T08:46:06;13.50;;;7.70;;
16352;SDS011;8286;51.274;9.542;2023-02-15T08:48:33;14.30;;;7.23;;
16352;SDS011;8286;51.274;9.542;2023-02-15T08:51:04;12.37;;;7.33;;
16352;SDS011;8286;51.274;9.542;2023-02-15T08:53:31;17.57;;;7.57;;
16352;SDS011;8286;51.274;9.542;2023-02-15T08:55:59;13.60;;;7.93;;
16352;SDS011;8286;51.274;9.542;2023-02-15T08:58:26;12.03;;;6.03;;
16352;SDS011;8286;51.274;9.542;2023-02-15T09:00:52;13.63;;;6.87;;
16352;SDS011;8286;51.274;9.542;2023-02-15T09:03:19;15.87;;;7.30;;
16352;SDS011;8286;51.274;9.542;2023-02-15T09:05:45;11.47;;;6.27;;
16352;SDS011;8286;51.274;9.542;2023-02-15T09:08:12;13.00;;;6.77;;
16352;SDS011;8286;51.274;9.542;2023-02-15T09:10:38;11.30;;;6.40;;
16352;SDS011;8286;51.274;9.542;2023-02-15T09:13:06;13.10;;;6.30;;
16352;SDS011;8286;51.274;9.542;2023-02-15T09:15:33;12.00;;;6.50;;
16352;SDS011;8286;51.274;9.542;2023-02-15T09:17:59;13.60;;;7.07;;
16352;SDS011;8286;51.274;9.542;2023-02-15T09:20:30;13.43;;;6.67;;
16352;SDS011;8286;51.274;9.542;2023-02-15T09:22:57;12.53;;;6.90;;
16352;SDS011;8286;51.274;9.542;2023-02-15T09:25:24;13.83;;;6.93;;
16352;SDS011;8286;51.274;9.542;2023-02-15T09:27:51;13.20;;;6.20;;
16352;SDS011;8286;51.274;9.542;2023-02-15T09:30:19;12.13;;;6.37;;
16352;SDS011;8286;51.274;9.542;2023-02-15T09:32:46;13.50;;;6.80;;
16352;SDS011;8286;51.274;9.542;2023-02-15T09:35:13;14.23;;;7.50;;
16352;SDS011;8286;51.274;9.542;2023-02-15T09:37:39;13.37;;;7.07;;
16352;SDS011;8286;51.274;9.542;2023-02-15T09:40:06;12.20;;;6.07;;
16352;SDS011;8286;51.274;9.542;2023-02-15T09:42:45;14.73;;;7.13;;
16352;SDS011;8286;51.274;9.542;2023-02-15T09:45:27;12.17;;;6.60;;
16352;SDS011;8286;51.274;9.542;2023-02-15T09:48:03;15.93;;;7.17;;
16352;SDS011;8286;51.274;9.542;2023-02-15T09:50:54;13.03;;;7.03;;
16352;SDS011;8286;51.274;9.542;2023-02-15T09:53:33;11.60;;;6.33;;
16352;SDS011;8286;51.274;9.542;2023-02-15T09:56:07;12.03;;;6.77;;
16352;SDS011;8286;51.274;9.542;2023-02-15T09:58:38;13.23;;;7.07;;
16352;SDS011;8286;51.274;9.542;2023-02-15T10:01:15;15.27;;;7.63;;
16352;SDS011;8286;51.274;9.542;2023-02-15T10:03:51;12.30;;;7.00;;
16352;SDS011;8286;51.274;9.542;2023-02-15T10:06:27;14.00;;;7.60;;
16352;SDS011;8286;51.274;9.542;2023-02-15T10:09:02;16.70;;;7.43;;
16352;SDS011;8286;51.274;9.542;2023-02-15T10:11:38;17.73;;;7.37;;
16352;SDS011;8286;51.274;9.542;2023-02-15T10:14:21;14.70;;;7.30;;
16352;SDS011;8286;51.274;9.542;2023-02-15T10:17:05;13.77;;;7.30;;
16352;SDS011;8286;51.274;9.542;2023-02-15T10:19:39;12.63;;;7.30;;
16352;SDS011;8286;51.274;9.542;2023-02-15T10:22:13;17.23;;;8.00;;
16352;SDS011;8286;51.274;9.542;2023-02-15T10:24:51;15.27;;;6.93;;
16352;SDS011;8286;51.274;9.542;2023-02-15T10:27:28;14.60;;;7.57;;
16352;SDS011;8286;51.274;9.542;2023-02-15T10:30:02;15.30;;;7.53;;
16352;SDS011;8286;51.274;9.542;2023-02-15T10:32:36;14.50;;;6.87;;
16352;SDS011;8286;51.274;9.542;2023-02-15T10:35:08;14.07;;;6.93;;
16352;SDS011;8286;51.274;9.542;2023-02-15T10:40:33;16.07;;;8.20;;
16352;SDS011;8286;51.274;9.542;2023-02-15T10:43:09;17.77;;;7.73;;
16352;SDS011;8286;51.274;9.542;2023-02-15T10:45:45;14.60;;;7.17;;
16352;SDS011;8286;51.274;9.542;2023-02-15T10:51:30;16.83;;;8.00;;
16352;SDS011;8286;51.274;9.542;2023-02-15T10:54:05;15.47;;;7.90;;
16352;SDS011;8286;51.274;9.542;2023-02-15T10:56:40;17.63;;;7.73;;
16352;SDS011;8286;51.274;9.542;2023-02-15T10:59:20;18.23;;;8.47;;
16352;SDS011;8286;51.274;9.542;2023-02-15T11:01:54;17.97;;;8.27;;
16352;SDS011;8286;51.274;9.542;2023-02-15T11:06:52;14.93;;;6.97;;
16352;SDS011;8286;51.274;9.542;2023-02-15T11:09:20;15.20;;;6.73;;
16352;SDS011;8286;51.274;9.542;2023-02-15T11:11:49;14.00;;;8.10;;
16352;SDS011;8286;51.274;9.542;2023-02-15T11:14:20;13.43;;;8.07;;
16352;SDS011;8286;51.274;9.542;2023-02-15T11:16:50;16.43;;;8.13;;
16352;SDS011;8286;51.274;9.542;2023-02-15T11:19:19;18.10;;;8.07;;
16352;SDS011;8286;51.274;9.542;2023-02-15T11:21:48;15.20;;;8.13;;
16352;SDS011;8286;51.274;9.542;2023-02-15T11:24:17;15.83;;;7.87;;
16352;SDS011;8286;51.274;9.542;2023-02-15T11:26:46;13.87;;;7.50;;
16352;SDS011;8286;51.274;9.542;2023-02-15T11:29:16;16.10;;;7.30;;
16352;SDS011;8286;51.274;9.542;2023-02-15T11:31:48;18.37;;;9.20;;
16352;SDS011;8286;51.274;9.542;2023-02-15T11:34:18;13.57;;;7.33;;
16352;SDS011;8286;51.274;9.542;2023-02-15T11:36:48;15.60;;;7.80;;
16352;SDS011;8286;51.274;9.542;2023-02-15T11:39:17;16.53;;;8.03;;
16352;SDS011;8286;51.274;9.542;2023-02-15T11:41:45;15.13;;;7.87;;
16352;SDS011;8286;51.274;9.542;2023-02-15T11:44:15;16.17;;;7.87;;
16352;SDS011;8286;51.274;9.542;2023-02-15T11:46:45;15.20;;;8.43;;
16352;SDS011;8286;51.274;9.542;2023-02-15T11:49:17;17.33;;;7.63;;
16352;SDS011;8286;51.274;9.542;2023-02-15T11:51:47;17.87;;;8.77;;
16352;SDS011;8286;51.274;9.542;2023-02-15T11:54:15;14.73;;;7.90;;
16352;SDS011;8286;51.274;9.542;2023-02-15T11:56:43;18.37;;;8.20;;
16352;SDS011;8286;51.274;9.542;2023-02-15T11:59:10;19.60;;;8.57;;
16352;SDS011;8286;51.274;9.542;2023-02-15T12:01:40;19.10;;;8.03;;
16352;SDS011;8286;51.274;9.542;2023-02-15T12:04:10;15.00;;;7.73;;
16352;SDS011;8286;51.274;9.542;2023-02-15T12:06:45;24.50;;;9.83;;
16352;SDS011;8286;51.274;9.542;2023-02-15T12:09:16;20.37;;;9.50;;
16352;SDS011;8286;51.274;9.542;2023-02-15T12:11:46;16.37;;;9.07;;
16352;SDS011;8286;51.274;9.542;2023-02-15T12:14:13;19.43;;;10.27;;
16352;SDS011;8286;51.274;9.542;2023-02-15T12:16:42;14.80;;;7.90;;
16352;SDS011;8286;51.274;9.542;2023-02-15T12:19:13;18.77;;;9.53;;
16352;SDS011;8286;51.274;9.542;2023-02-15T12:21:55;19.33;;;8.90;;
16352;SDS011;8286;51.274;9.542;2023-02-15T12:24:23;14.57;;;7.63;;
16352;SDS011;8286;51.274;9.542;2023-02-15T12:26:57;15.80;;;8.40;;
16352;SDS011;8286;51.274;9.542;2023-02-15T12:29:26;15.73;;;8.80;;
16352;SDS011;8286;51.274;9.542;2023-02-15T12:31:54;18.10;;;9.20;;
16352;SDS011;8286;51.274;9.542;2023-02-15T12:34:21;16.43;;;8.43;;
16352;SDS011;8286;51.274;9.542;2023-02-15T12:36:49;16.17;;;7.77;;
16352;SDS011;8286;51.274;9.542;2023-02-15T12:39:20;18.07;;;9.10;;
16352;SDS011;8286;51.274;9.542;2023-02-15T12:42:03;17.83;;;8.73;;
16352;SDS011;8286;51.274;9.542;2023-02-15T12:44:31;14.87;;;7.70;;
16352;SDS011;8286;51.274;9.542;2023-02-15T12:46:59;18.23;;;8.53;;
16352;SDS011;8286;51.274;9.542;2023-02-15T12:49:27;16.33;;;8.13;;
16352;SDS011;8286;51.274;9.542;2023-02-15T12:51:55;19.67;;;9.10;;
16352;SDS011;8286;51.274;9.542;2023-02-15T12:54:31;15.83;;;8.33;;
16352;SDS011;8286;51.274;9.542;2023-02-15T12:59:58;16.07;;;8.90;;
16352;SDS011;8286;51.274;9.542;2023-02-15T13:02:27;18.47;;;9.57;;
16352;SDS011;8286;51.274;9.542;2023-02-15T13:04:56;16.70;;;8.87;;
16352;SDS011;8286;51.274;9.542;2023-02-15T13:07:24;18.30;;;9.03;;
16352;SDS011;8286;51.274;9.542;2023-02-15T13:09:57;19.27;;;10.53;;
16352;SDS011;8286;51.274;9.542;2023-02-15T13:12:24;16.27;;;8.30;;
16352;SDS011;8286;51.274;9.542;2023-02-15T13:14:54;17.73;;;9.27;;
16352;SDS011;8286;51.274;9.542;2023-02-15T13:17:21;16.47;;;8.97;;
16352;SDS011;8286;51.274;9.542;2023-02-15T13:19:54;18.23;;;9.17;;
16352;SDS011;8286;51.274;9.542;2023-02-15T13:22:23;20.87;;;10.60;;
16352;SDS011;8286;51.274;9.542;2023-02-15T13:24:53;17.20;;;9.57;;
16352;SDS011;8286;51.274;9.542;2023-02-15T13:27:21;16.33;;;8.87;;
16352;SDS011;8286;51.274;9.542;2023-02-15T13:29:51;13.93;;;8.10;;
16352;SDS011;8286;51.274;9.542;2023-02-15T13:32:25;17.77;;;9.37;;
16352;SDS011;8286;51.274;9.542;2023-02-15T13:34:54;14.73;;;9.17;;
16352;SDS011;8286;51.274;9.542;2023-02-15T13:37:25;18.37;;;9.37;;
16352;SDS011;8286;51.274;9.542;2023-02-15T13:40:20;17.93;;;10.43;;
16352;SDS011;8286;51.274;9.542;2023-02-15T13:42:49;16.03;;;9.50;;
16352;SDS011;8286;51.274;9.542;2023-02-15T13:45:28;15.57;;;9.33;;
16352;SDS011;8286;51.274;9.542;2023-02-15T13:48:00;20.07;;;10.03;;
16352;SDS011;8286;51.274;9.542;2023-02-15T13:50:38;19.10;;;9.83;;
16352;SDS011;8286;51.274;9.542;2023-02-15T13:53:19;17.77;;;9.90;;
16352;SDS011;8286;51.274;9.542;2023-02-15T13:56:17;20.03;;;9.30;;
16352;SDS011;8286;51.274;9.542;2023-02-15T13:59:06;20.73;;;9.50;;
16352;SDS011;8286;51.274;9.542;2023-02-15T14:01:45;15.73;;;9.27;;
16352;SDS011;8286;51.274;9.542;2023-02-15T14:04:17;22.40;;;10.33;;
16352;SDS011;8286;51.274;9.542;2023-02-15T14:07:05;17.37;;;9.40;;
16352;SDS011;8286;51.274;9.542;2023-02-15T14:09:40;19.10;;;9.13;;
16352;SDS011;8286;51.274;9.542;2023-02-15T14:12:20;16.70;;;8.67;;
16352;SDS011;8286;51.274;9.542;2023-02-15T14:15:00;17.70;;;9.30;;
16352;SDS011;8286;51.274;9.542;2023-02-15T14:17:37;16.27;;;9.27;;
16352;SDS011;8286;51.274;9.542;2023-02-15T14:20:16;20.33;;;9.47;;
16352;SDS011;8286;51.274;9.542;2023-02-15T14:22:46;21.40;;;10.63;;
16352;SDS011;8286;51.274;9.542;2023-02-15T14:25:18;17.30;;;9.33;;
16352;SDS011;8286;51.274;9.542;2023-02-15T14:27:51;18.57;;;10.00;;
16352;SDS011;8286;51.274;9.542;2023-02-15T14:30:22;22.37;;;10.90;;
16352;SDS011;8286;51.274;9.542;2023-02-15T14:32:54;20.70;;;10.13;;
16352;SDS011;8286;51.274;9.542;2023-02-15T14:35:22;21.97;;;9.77;;
16352;SDS011;8286;51.274;9.542;2023-02-15T14:37:52;21.93;;;10.47;;
16352;SDS011;8286;51.274;9.542;2023-02-15T14:40:25;22.93;;;10.90;;
16352;SDS011;8286;51.274;9.542;2023-02-15T14:43:15;21.87;;;10.60;;
16352;SDS011;8286;51.274;9.542;2023-02-15T14:45:55;19.77;;;10.60;;
16352;SDS011;8286;51.274;9.542;2023-02-15T14:48:24;23.37;;;10.53;;
16352;SDS011;8286;51.274;9.542;2023-02-15T14:50:52;22.50;;;11.20;;
16352;SDS011;8286;51.274;9.542;2023-02-15T14:53:24;27.33;;;12.57;;
16352;SDS011;8286;51.274;9.542;2023-02-15T14:56:20;24.67;;;11.13;;
16352;SDS011;8286;51.274;9.542;2023-02-15T14:58:55;24.00;;;10.70;;
16352;SDS011;8286;51.274;9.542;2023-02-15T15:01:26;19.60;;;10.27;;
16352;SDS011;8286;51.274;9.542;2023-02-15T15:03:55;26.33;;;11.43;;
16352;SDS011;8286;51.274;9.542;2023-02-15T15:06:25;29.40;;;12.80;;
16352;SDS011;8286;51.274;9.542;2023-02-15T15:08:54;23.60;;;10.07;;
16352;SDS011;8286;51.274;9.542;2023-02-15T15:11:37;25.93;;;11.90;;
16352;SDS011;8286;51.274;9.542;2023-02-15T15:17:05;29.40;;;11.97;;
16352;SDS011;8286;51.274;9.542;2023-02-15T15:22:38;24.00;;;11.33;;
16352;SDS011;8286;51.274;9.542;2023-02-15T15:25:08;26.20;;;11.80;;
16352;SDS011;8286;51.274;9.542;2023-02-15T15:40:00;29.83;;;11.90;;
16352;SDS011;8286;51.274;9.542;2023-02-15T15:43:02;24.53;;;9.77;;
16352;SDS011;8286;51.274;9.542;2023-02-15T15:46:13;26.47;;;12.93;;